sensor_id;sensor_type;location;lat;lon;timestamp;P1;durP1;ratioP1;P2;durP2;ratioP2
25125;SDS011;13106;50.808;5.670;2023-04-24T00:00:20;7.43;;;5.10;;
25125;SDS011;13106;50.808;5.670;2023-04-24T00:02:46;9.35;;;5.20;;
25125;SDS011;13106;50.808;5.670;2023-04-24T00:05:13;9.02;;;5.53;;
25125;SDS011;13106;50.808;5.670;2023-04-24T00:07:40;10.60;;;5.65;;
25125;SDS011;13106;50.808;5.670;2023-04-24T00:10:06;8.73;;;5.10;;
25125;SDS011;13106;50.808;5.670;2023-04-24T00:12:32;10.48;;;6.00;;
25125;SDS011;13106;50.808;5.670;2023-04-24T00:14:58;8.30;;;5.35;;
25125;SDS011;13106;50.808;5.670;2023-04-24T00:17:24;11.70;;;6.15;;
25125;SDS011;13106;50.808;5.670;2023-04-24T00:19:51;12.52;;;6.25;;
25125;SDS011;13106;50.808;5.670;2023-04-24T00:22:23;13.13;;;6.55;;
25125;SDS011;13106;50.808;5.670;2023-04-24T00:24:49;10.88;;;6.50;;
25125;SDS011;13106;50.808;5.670;2023-04-24T00:27:15;11.13;;;6.90;;
25125;SDS011;13106;50.808;5.670;2023-04-24T00:29:41;11.88;;;7.43;;
25125;SDS011;13106;50.808;5.670;2023-04-24T00:32:07;14.80;;;7.47;;
25125;SDS011;13106;50.808;5.670;2023-04-24T00:34:33;13.98;;;7.97;;
25125;SDS011;13106;50.808;5.670;2023-04-24T00:36:59;14.65;;;7.95;;
25125;SDS011;13106;50.808;5.670;2023-04-24T00:39:25;13.30;;;7.43;;
25125;SDS011;13106;50.808;5.670;2023-04-24T00:41:51;15.90;;;9.02;;
25125;SDS011;13106;50.808;5.670;2023-04-24T00:44:18;11.25;;;8.25;;
25125;SDS011;13106;50.808;5.670;2023-04-24T00:46:44;13.90;;;8.18;;
25125;SDS011;13106;50.808;5.670;2023-04-24T00:49:11;18.13;;;8.98;;
25125;SDS011;13106;50.808;5.670;2023-04-24T00:51:37;15.38;;;9.23;;
25125;SDS011;13106;50.808;5.670;2023-04-24T00:54:05;12.65;;;8.98;;
25125;SDS011;13106;50.808;5.670;2023-04-24T00:56:31;16.55;;;9.43;;
25125;SDS011;13106;50.808;5.670;2023-04-24T00:58:58;14.75;;;9.35;;
25125;SDS011;13106;50.808;5.670;2023-04-24T01:01:24;14.82;;;9.32;;
25125;SDS011;13106;50.808;5.670;2023-04-24T01:03:50;17.63;;;9.82;;
25125;SDS011;13106;50.808;5.670;2023-04-24T01:06:17;18.00;;;10.80;;
25125;SDS011;13106;50.808;5.670;2023-04-24T01:08:44;16.92;;;11.07;;
25125;SDS011;13106;50.808;5.670;2023-04-24T01:11:11;16.73;;;10.60;;
25125;SDS011;13106;50.808;5.670;2023-04-24T01:13:37;19.88;;;9.73;;
25125;SDS011;13106;50.808;5.670;2023-04-24T01:16:03;19.27;;;10.50;;
25125;SDS011;13106;50.808;5.670;2023-04-24T01:18:29;18.10;;;9.38;;
25125;SDS011;13106;50.808;5.670;2023-04-24T01:20:57;16.85;;;9.02;;
25125;SDS011;13106;50.808;5.670;2023-04-24T01:23:23;18.17;;;9.82;;
25125;SDS011;13106;50.808;5.670;2023-04-24T01:25:49;17.92;;;9.70;;
25125;SDS011;13106;50.808;5.670;2023-04-24T01:28:16;15.57;;;9.77;;
25125;SDS011;13106;50.808;5.670;2023-04-24T01:30:43;16.77;;;9.98;;
25125;SDS011;13106;50.808;5.670;2023-04-24T01:33:09;18.30;;;10.02;;
25125;SDS011;13106;50.808;5.670;2023-04-24T01:35:35;15.57;;;9.80;;
25125;SDS011;13106;50.808;5.670;2023-04-24T01:38:02;17.98;;;10.27;;
25125;SDS011;13106;50.808;5.670;2023-04-24T01:40:28;14.25;;;9.10;;
25125;SDS011;13106;50.808;5.670;2023-04-24T01:42:54;15.82;;;9.98;;
25125;SDS011;13106;50.808;5.670;2023-04-24T01:45:21;21.58;;;10.27;;
25125;SDS011;13106;50.808;5.670;2023-04-24T01:47:47;15.82;;;9.60;;
25125;SDS011;13106;50.808;5.670;2023-04-24T01:50:14;18.27;;;10.02;;
25125;SDS011;13106;50.808;5.670;2023-04-24T01:52:40;19.88;;;10.57;;
25125;SDS011;13106;50.808;5.670;2023-04-24T01:55:06;15.70;;;10.82;;
25125;SDS011;13106;50.808;5.670;2023-04-24T01:57:32;20.83;;;10.18;;
25125;SDS011;13106;50.808;5.670;2023-04-24T01:59:59;20.25;;;10.82;;
25125;SDS011;13106;50.808;5.670;2023-04-24T02:02:25;19.38;;;10.75;;
25125;SDS011;13106;50.808;5.670;2023-04-24T02:04:55;18.77;;;11.27;;
25125;SDS011;13106;50.808;5.670;2023-04-24T02:07:21;17.60;;;9.48;;
25125;SDS011;13106;50.808;5.670;2023-04-24T02:09:47;13.95;;;9.73;;
25125;SDS011;13106;50.808;5.670;2023-04-24T02:12:14;17.92;;;9.80;;
25125;SDS011;13106;50.808;5.670;2023-04-24T02:14:40;17.20;;;10.55;;
25125;SDS011;13106;50.808;5.670;2023-04-24T02:17:07;15.25;;;9.38;;
25125;SDS011;13106;50.808;5.670;2023-04-24T02:19:33;18.52;;;10.35;;
25125;SDS011;13106;50.808;5.670;2023-04-24T02:21:59;14.23;;;10.02;;
25125;SDS011;13106;50.808;5.670;2023-04-24T02:24:25;21.00;;;11.00;;
25125;SDS011;13106;50.808;5.670;2023-04-24T02:26:52;14.30;;;9.30;;
25125;SDS011;13106;50.808;5.670;2023-04-24T02:29:18;18.02;;;9.65;;
25125;SDS011;13106;50.808;5.670;2023-04-24T02:31:44;16.58;;;10.13;;
25125;SDS011;13106;50.808;5.670;2023-04-24T02:34:10;18.02;;;10.05;;
25125;SDS011;13106;50.808;5.670;2023-04-24T02:36:36;16.98;;;9.95;;
25125;SDS011;13106;50.808;5.670;2023-04-24T02:39:02;17.25;;;10.13;;
25125;SDS011;13106;50.808;5.670;2023-04-24T02:41:28;16.92;;;10.70;;
25125;SDS011;13106;50.808;5.670;2023-04-24T02:43:57;16.67;;;10.23;;
25125;SDS011;13106;50.808;5.670;2023-04-24T02:46:23;15.15;;;10.13;;
25125;SDS011;13106;50.808;5.670;2023-04-24T02:48:49;19.95;;;10.70;;
25125;SDS011;13106;50.808;5.670;2023-04-24T02:51:15;14.00;;;10.10;;
25125;SDS011;13106;50.808;5.670;2023-04-24T02:53:41;18.17;;;10.25;;
25125;SDS011;13106;50.808;5.670;2023-04-24T02:56:07;15.00;;;10.20;;
25125;SDS011;13106;50.808;5.670;2023-04-24T02:58:33;17.15;;;10.27;;
25125;SDS011;13106;50.808;5.670;2023-04-24T03:01:00;17.38;;;9.43;;
25125;SDS011;13106;50.808;5.670;2023-04-24T03:03:26;17.35;;;10.60;;
25125;SDS011;13106;50.808;5.670;2023-04-24T03:05:52;16.70;;;10.35;;
25125;SDS011;13106;50.808;5.670;2023-04-24T03:08:18;15.20;;;10.32;;
25125;SDS011;13106;50.808;5.670;2023-04-24T03:10:44;12.95;;;9.40;;
25125;SDS011;13106;50.808;5.670;2023-04-24T03:13:10;16.05;;;10.70;;
25125;SDS011;13106;50.808;5.670;2023-04-24T03:15:36;16.38;;;10.60;;
25125;SDS011;13106;50.808;5.670;2023-04-24T03:18:02;17.23;;;11.05;;
25125;SDS011;13106;50.808;5.670;2023-04-24T03:20:28;15.43;;;10.43;;
25125;SDS011;13106;50.808;5.670;2023-04-24T03:22:55;21.75;;;10.68;;
25125;SDS011;13106;50.808;5.670;2023-04-24T03:25:22;16.38;;;9.88;;
25125;SDS011;13106;50.808;5.670;2023-04-24T03:27:48;16.98;;;9.30;;
25125;SDS011;13106;50.808;5.670;2023-04-24T03:30:14;18.85;;;11.85;;
25125;SDS011;13106;50.808;5.670;2023-04-24T03:32:40;13.77;;;10.90;;
25125;SDS011;13106;50.808;5.670;2023-04-24T03:35:06;16.25;;;10.65;;
25125;SDS011;13106;50.808;5.670;2023-04-24T03:37:33;17.92;;;11.05;;
25125;SDS011;13106;50.808;5.670;2023-04-24T03:39:59;16.52;;;10.50;;
25125;SDS011;13106;50.808;5.670;2023-04-24T03:42:25;14.70;;;11.02;;
25125;SDS011;13106;50.808;5.670;2023-04-24T03:44:51;18.63;;;11.23;;
25125;SDS011;13106;50.808;5.670;2023-04-24T03:47:18;19.92;;;11.50;;
25125;SDS011;13106;50.808;5.670;2023-04-24T03:49:44;17.13;;;10.40;;
25125;SDS011;13106;50.808;5.670;2023-04-24T03:52:10;16.33;;;10.65;;
25125;SDS011;13106;50.808;5.670;2023-04-24T03:54:36;14.60;;;11.15;;
25125;SDS011;13106;50.808;5.670;2023-04-24T03:57:02;18.73;;;11.70;;
25125;SDS011;13106;50.808;5.670;2023-04-24T03:59:29;18.08;;;12.38;;
25125;SDS011;13106;50.808;5.670;2023-04-24T04:01:55;16.52;;;11.68;;
25125;SDS011;13106;50.808;5.670;2023-04-24T04:04:21;17.08;;;12.05;;
25125;SDS011;13106;50.808;5.670;2023-04-24T04:06:47;16.08;;;11.13;;
25125;SDS011;13106;50.808;5.670;2023-04-24T04:09:14;15.82;;;11.23;;
25125;SDS011;13106;50.808;5.670;2023-04-24T04:11:40;18.50;;;11.32;;
25125;SDS011;13106;50.808;5.670;2023-04-24T04:14:06;19.02;;;11.77;;
25125;SDS011;13106;50.808;5.670;2023-04-24T04:16:32;20.80;;;11.40;;
25125;SDS011;13106;50.808;5.670;2023-04-24T04:18:58;15.85;;;10.38;;
25125;SDS011;13106;50.808;5.670;2023-04-24T04:21:24;19.65;;;11.00;;
25125;SDS011;13106;50.808;5.670;2023-04-24T04:23:51;13.13;;;9.45;;
25125;SDS011;13106;50.808;5.670;2023-04-24T04:26:17;17.10;;;10.77;;
25125;SDS011;13106;50.808;5.670;2023-04-24T04:28:44;16.58;;;10.27;;
25125;SDS011;13106;50.808;5.670;2023-04-24T04:31:10;18.67;;;11.02;;
25125;SDS011;13106;50.808;5.670;2023-04-24T04:33:36;17.55;;;10.32;;
25125;SDS011;13106;50.808;5.670;2023-04-24T04:36:04;23.98;;;21.65;;
25125;SDS011;13106;50.808;5.670;2023-04-24T04:38:30;20.27;;;18.23;;
25125;SDS011;13106;50.808;5.670;2023-04-24T04:40:56;21.65;;;19.83;;
25125;SDS011;13106;50.808;5.670;2023-04-24T04:43:23;20.33;;;18.23;;
25125;SDS011;13106;50.808;5.670;2023-04-24T04:45:49;21.55;;;19.45;;
25125;SDS011;13106;50.808;5.670;2023-04-24T04:48:16;14.57;;;11.75;;
25125;SDS011;13106;50.808;5.670;2023-04-24T04:50:42;12.10;;;9.75;;
25125;SDS011;13106;50.808;5.670;2023-04-24T04:53:08;18.65;;;11.55;;
25125;SDS011;13106;50.808;5.670;2023-04-24T04:55:35;10.52;;;9.13;;
25125;SDS011;13106;50.808;5.670;2023-04-24T04:58:01;19.98;;;9.65;;
25125;SDS011;13106;50.808;5.670;2023-04-24T05:00:27;12.85;;;10.27;;
25125;SDS011;13106;50.808;5.670;2023-04-24T05:02:58;14.23;;;9.90;;
25125;SDS011;13106;50.808;5.670;2023-04-24T05:05:24;15.80;;;9.52;;
25125;SDS011;13106;50.808;5.670;2023-04-24T05:07:50;14.07;;;8.32;;
25125;SDS011;13106;50.808;5.670;2023-04-24T05:10:16;13.98;;;9.20;;
25125;SDS011;13106;50.808;5.670;2023-04-24T05:12:43;11.63;;;8.80;;
25125;SDS011;13106;50.808;5.670;2023-04-24T05:15:09;12.80;;;8.35;;
25125;SDS011;13106;50.808;5.670;2023-04-24T05:17:35;11.10;;;7.63;;
25125;SDS011;13106;50.808;5.670;2023-04-24T05:20:02;13.90;;;8.02;;
25125;SDS011;13106;50.808;5.670;2023-04-24T05:22:30;15.07;;;7.35;;
25125;SDS011;13106;50.808;5.670;2023-04-24T05:24:56;12.27;;;7.55;;
25125;SDS011;13106;50.808;5.670;2023-04-24T05:27:22;25.92;;;23.95;;
25125;SDS011;13106;50.808;5.670;2023-04-24T05:29:48;16.90;;;15.35;;
25125;SDS011;13106;50.808;5.670;2023-04-24T05:32:14;13.93;;;12.65;;
25125;SDS011;13106;50.808;5.670;2023-04-24T05:34:40;15.55;;;14.00;;
25125;SDS011;13106;50.808;5.670;2023-04-24T05:37:06;11.13;;;7.43;;
25125;SDS011;13106;50.808;5.670;2023-04-24T05:39:34;10.57;;;7.95;;
25125;SDS011;13106;50.808;5.670;2023-04-24T05:42:01;10.40;;;8.23;;
25125;SDS011;13106;50.808;5.670;2023-04-24T05:44:28;10.63;;;7.78;;
25125;SDS011;13106;50.808;5.670;2023-04-24T05:46:54;11.98;;;8.60;;
25125;SDS011;13106;50.808;5.670;2023-04-24T05:49:21;11.68;;;8.43;;
25125;SDS011;13106;50.808;5.670;2023-04-24T05:51:47;9.35;;;6.70;;
25125;SDS011;13106;50.808;5.670;2023-04-24T05:54:13;9.15;;;7.13;;
25125;SDS011;13106;50.808;5.670;2023-04-24T05:56:39;6.05;;;5.32;;
25125;SDS011;13106;50.808;5.670;2023-04-24T05:59:05;11.50;;;7.57;;
25125;SDS011;13106;50.808;5.670;2023-04-24T06:01:32;12.25;;;7.70;;
25125;SDS011;13106;50.808;5.670;2023-04-24T06:03:58;11.15;;;7.53;;
25125;SDS011;13106;50.808;5.670;2023-04-24T06:06:24;11.68;;;7.25;;
25125;SDS011;13106;50.808;5.670;2023-04-24T06:08:52;11.82;;;7.15;;
25125;SDS011;13106;50.808;5.670;2023-04-24T06:11:18;9.35;;;7.65;;
25125;SDS011;13106;50.808;5.670;2023-04-24T06:13:44;8.73;;;7.18;;
25125;SDS011;13106;50.808;5.670;2023-04-24T06:16:10;9.25;;;7.40;;
25125;SDS011;13106;50.808;5.670;2023-04-24T06:18:36;10.43;;;6.95;;
25125;SDS011;13106;50.808;5.670;2023-04-24T06:21:03;9.40;;;6.68;;
25125;SDS011;13106;50.808;5.670;2023-04-24T06:23:30;13.20;;;7.35;;
25125;SDS011;13106;50.808;5.670;2023-04-24T06:25:58;10.43;;;7.10;;
25125;SDS011;13106;50.808;5.670;2023-04-24T06:28:24;9.18;;;6.53;;
25125;SDS011;13106;50.808;5.670;2023-04-24T06:30:50;10.68;;;6.75;;
25125;SDS011;13106;50.808;5.670;2023-04-24T06:33:16;9.32;;;7.13;;
25125;SDS011;13106;50.808;5.670;2023-04-24T06:35:42;12.32;;;11.02;;
25125;SDS011;13106;50.808;5.670;2023-04-24T06:38:08;12.63;;;8.55;;
25125;SDS011;13106;50.808;5.670;2023-04-24T06:40:34;10.65;;;7.50;;
25125;SDS011;13106;50.808;5.670;2023-04-24T06:43:00;10.73;;;7.63;;
25125;SDS011;13106;50.808;5.670;2023-04-24T06:45:28;10.23;;;7.10;;
25125;SDS011;13106;50.808;5.670;2023-04-24T06:47:54;15.23;;;8.15;;
25125;SDS011;13106;50.808;5.670;2023-04-24T06:50:20;10.27;;;7.13;;
25125;SDS011;13106;50.808;5.670;2023-04-24T06:52:46;11.60;;;7.43;;
25125;SDS011;13106;50.808;5.670;2023-04-24T06:55:12;17.77;;;16.20;;
25125;SDS011;13106;50.808;5.670;2023-04-24T06:57:40;11.18;;;9.30;;
25125;SDS011;13106;50.808;5.670;2023-04-24T07:00:06;10.75;;;7.88;;
25125;SDS011;13106;50.808;5.670;2023-04-24T07:02:34;12.07;;;7.55;;
25125;SDS011;13106;50.808;5.670;2023-04-24T07:05:00;11.18;;;6.40;;
25125;SDS011;13106;50.808;5.670;2023-04-24T07:07:27;12.93;;;6.70;;
25125;SDS011;13106;50.808;5.670;2023-04-24T07:09:53;10.57;;;7.05;;
25125;SDS011;13106;50.808;5.670;2023-04-24T07:12:19;10.82;;;9.10;;
25125;SDS011;13106;50.808;5.670;2023-04-24T07:14:46;13.63;;;9.90;;
25125;SDS011;13106;50.808;5.670;2023-04-24T07:17:14;12.50;;;11.15;;
25125;SDS011;13106;50.808;5.670;2023-04-24T07:19:40;11.75;;;7.10;;
25125;SDS011;13106;50.808;5.670;2023-04-24T07:22:06;11.57;;;7.60;;
25125;SDS011;13106;50.808;5.670;2023-04-24T07:24:32;14.35;;;8.23;;
25125;SDS011;13106;50.808;5.670;2023-04-24T07:26:58;13.00;;;8.82;;
25125;SDS011;13106;50.808;5.670;2023-04-24T07:29:26;13.40;;;9.18;;
25125;SDS011;13106;50.808;5.670;2023-04-24T07:31:52;15.35;;;9.82;;
25125;SDS011;13106;50.808;5.670;2023-04-24T07:34:19;14.15;;;10.10;;
25125;SDS011;13106;50.808;5.670;2023-04-24T07:36:45;15.38;;;10.40;;
25125;SDS011;13106;50.808;5.670;2023-04-24T07:39:12;15.07;;;10.73;;
25125;SDS011;13106;50.808;5.670;2023-04-24T07:41:38;16.98;;;10.30;;
25125;SDS011;13106;50.808;5.670;2023-04-24T07:44:04;15.65;;;9.80;;
25125;SDS011;13106;50.808;5.670;2023-04-24T07:46:30;15.63;;;8.73;;
25125;SDS011;13106;50.808;5.670;2023-04-24T07:48:56;16.52;;;11.68;;
25125;SDS011;13106;50.808;5.670;2023-04-24T07:51:24;13.88;;;11.10;;
25125;SDS011;13106;50.808;5.670;2023-04-24T07:53:52;13.93;;;8.52;;
25125;SDS011;13106;50.808;5.670;2023-04-24T07:56:19;12.98;;;8.60;;
25125;SDS011;13106;50.808;5.670;2023-04-24T07:58:45;15.32;;;9.95;;
25125;SDS011;13106;50.808;5.670;2023-04-24T08:01:11;16.75;;;9.27;;
25125;SDS011;13106;50.808;5.670;2023-04-24T08:03:37;13.13;;;8.35;;
25125;SDS011;13106;50.808;5.670;2023-04-24T08:06:04;15.07;;;9.48;;
25125;SDS011;13106;50.808;5.670;2023-04-24T08:08:30;13.02;;;9.10;;
25125;SDS011;13106;50.808;5.670;2023-04-24T08:10:56;13.95;;;9.65;;
25125;SDS011;13106;50.808;5.670;2023-04-24T08:13:22;15.25;;;10.50;;
25125;SDS011;13106;50.808;5.670;2023-04-24T08:15:48;16.10;;;10.32;;
25125;SDS011;13106;50.808;5.670;2023-04-24T08:18:14;18.65;;;11.20;;
25125;SDS011;13106;50.808;5.670;2023-04-24T08:20:41;19.48;;;12.18;;
25125;SDS011;13106;50.808;5.670;2023-04-24T08:23:07;17.10;;;11.07;;
25125;SDS011;13106;50.808;5.670;2023-04-24T08:25:33;19.80;;;12.27;;
25125;SDS011;13106;50.808;5.670;2023-04-24T08:28:00;20.65;;;13.10;;
25125;SDS011;13106;50.808;5.670;2023-04-24T08:30:26;22.50;;;12.93;;
25125;SDS011;13106;50.808;5.670;2023-04-24T08:32:52;18.05;;;13.45;;
25125;SDS011;13106;50.808;5.670;2023-04-24T08:35:18;20.90;;;12.73;;
25125;SDS011;13106;50.808;5.670;2023-04-24T08:37:44;18.85;;;12.52;;
25125;SDS011;13106;50.808;5.670;2023-04-24T08:40:14;17.60;;;12.18;;
25125;SDS011;13106;50.808;5.670;2023-04-24T08:42:43;21.50;;;12.25;;
25125;SDS011;13106;50.808;5.670;2023-04-24T08:45:12;19.58;;;11.57;;
25125;SDS011;13106;50.808;5.670;2023-04-24T08:47:39;18.05;;;11.77;;
25125;SDS011;13106;50.808;5.670;2023-04-24T08:50:06;18.63;;;12.13;;
25125;SDS011;13106;50.808;5.670;2023-04-24T08:52:33;20.67;;;12.50;;
25125;SDS011;13106;50.808;5.670;2023-04-24T08:54:59;18.60;;;11.55;;
25125;SDS011;13106;50.808;5.670;2023-04-24T08:57:35;19.17;;;14.68;;
25125;SDS011;13106;50.808;5.670;2023-04-24T09:00:03;21.77;;;11.10;;
25125;SDS011;13106;50.808;5.670;2023-04-24T09:02:29;24.13;;;20.30;;
25125;SDS011;13106;50.808;5.670;2023-04-24T09:04:57;15.27;;;9.48;;
25125;SDS011;13106;50.808;5.670;2023-04-24T09:07:24;24.75;;;9.65;;
25125;SDS011;13106;50.808;5.670;2023-04-24T09:09:51;23.38;;;9.73;;
25125;SDS011;13106;50.808;5.670;2023-04-24T09:12:17;15.20;;;8.75;;
25125;SDS011;13106;50.808;5.670;2023-04-24T09:14:44;15.20;;;8.40;;
25125;SDS011;13106;50.808;5.670;2023-04-24T09:17:11;14.88;;;8.00;;
25125;SDS011;13106;50.808;5.670;2023-04-24T09:19:37;11.32;;;6.57;;
25125;SDS011;13106;50.808;5.670;2023-04-24T09:22:07;16.00;;;8.05;;
25125;SDS011;13106;50.808;5.670;2023-04-24T09:24:33;15.05;;;7.65;;
25125;SDS011;13106;50.808;5.670;2023-04-24T09:27:00;14.02;;;6.90;;
25125;SDS011;13106;50.808;5.670;2023-04-24T09:29:27;11.30;;;6.47;;
25125;SDS011;13106;50.808;5.670;2023-04-24T09:31:53;17.83;;;6.60;;
25125;SDS011;13106;50.808;5.670;2023-04-24T09:34:23;12.95;;;6.40;;
25125;SDS011;13106;50.808;5.670;2023-04-24T09:36:49;16.15;;;5.97;;
25125;SDS011;13106;50.808;5.670;2023-04-24T09:39:16;12.93;;;5.65;;
25125;SDS011;13106;50.808;5.670;2023-04-24T09:42:00;10.95;;;5.80;;
25125;SDS011;13106;50.808;5.670;2023-04-24T09:44:27;10.60;;;6.28;;
25125;SDS011;13106;50.808;5.670;2023-04-24T09:46:55;7.80;;;5.05;;
25125;SDS011;13106;50.808;5.670;2023-04-24T09:49:28;11.25;;;5.88;;
25125;SDS011;13106;50.808;5.670;2023-04-24T09:54:30;15.88;;;7.13;;
25125;SDS011;13106;50.808;5.670;2023-04-24T09:56:56;14.65;;;6.00;;
25125;SDS011;13106;50.808;5.670;2023-04-24T09:59:22;10.55;;;6.75;;
25125;SDS011;13106;50.808;5.670;2023-04-24T10:01:48;13.95;;;6.03;;
25125;SDS011;13106;50.808;5.670;2023-04-24T10:06:42;10.55;;;5.60;;
25125;SDS011;13106;50.808;5.670;2023-04-24T10:09:09;12.63;;;5.93;;
25125;SDS011;13106;50.808;5.670;2023-04-24T10:11:37;9.57;;;5.68;;
25125;SDS011;13106;50.808;5.670;2023-04-24T10:14:03;12.32;;;5.80;;
25125;SDS011;13106;50.808;5.670;2023-04-24T10:16:30;13.98;;;5.88;;
25125;SDS011;13106;50.808;5.670;2023-04-24T10:18:58;12.70;;;6.32;;
25125;SDS011;13106;50.808;5.670;2023-04-24T10:21:25;13.68;;;6.57;;
25125;SDS011;13106;50.808;5.670;2023-04-24T10:23:52;15.32;;;6.82;;
25125;SDS011;13106;50.808;5.670;2023-04-24T10:26:19;11.80;;;6.82;;
25125;SDS011;13106;50.808;5.670;2023-04-24T10:28:46;16.40;;;7.50;;
25125;SDS011;13106;50.808;5.670;2023-04-24T10:31:13;15.00;;;6.78;;
25125;SDS011;13106;50.808;5.670;2023-04-24T10:33:43;12.15;;;6.57;;
25125;SDS011;13106;50.808;5.670;2023-04-24T10:36:09;10.77;;;6.10;;
25125;SDS011;13106;50.808;5.670;2023-04-24T10:38:36;17.90;;;6.18;;
25125;SDS011;13106;50.808;5.670;2023-04-24T10:41:11;11.98;;;5.95;;
25125;SDS011;13106;50.808;5.670;2023-04-24T10:43:44;10.07;;;6.05;;
25125;SDS011;13106;50.808;5.670;2023-04-24T10:46:10;15.07;;;5.93;;
25125;SDS011;13106;50.808;5.670;2023-04-24T10:48:42;15.02;;;5.78;;
25125;SDS011;13106;50.808;5.670;2023-04-24T10:51:12;8.15;;;4.97;;
25125;SDS011;13106;50.808;5.670;2023-04-24T10:53:39;12.60;;;4.95;;
25125;SDS011;13106;50.808;5.670;2023-04-24T10:56:37;15.88;;;5.40;;
25125;SDS011;13106;50.808;5.670;2023-04-24T10:59:07;11.50;;;4.88;;
25125;SDS011;13106;50.808;5.670;2023-04-24T11:01:34;13.50;;;5.50;;
25125;SDS011;13106;50.808;5.670;2023-04-24T11:04:04;15.63;;;5.93;;
25125;SDS011;13106;50.808;5.670;2023-04-24T11:11:28;12.13;;;5.78;;
25125;SDS011;13106;50.808;5.670;2023-04-24T11:18:50;11.75;;;5.35;;
25125;SDS011;13106;50.808;5.670;2023-04-24T11:21:18;9.80;;;5.30;;
25125;SDS011;13106;50.808;5.670;2023-04-24T11:23:44;15.63;;;5.75;;
25125;SDS011;13106;50.808;5.670;2023-04-24T11:26:11;14.32;;;5.97;;
25125;SDS011;13106;50.808;5.670;2023-04-24T11:28:43;11.07;;;4.88;;
25125;SDS011;13106;50.808;5.670;2023-04-24T11:33:54;8.45;;;4.60;;
25125;SDS011;13106;50.808;5.670;2023-04-24T11:36:20;8.82;;;4.32;;
25125;SDS011;13106;50.808;5.670;2023-04-24T11:38:46;13.90;;;5.00;;
25125;SDS011;13106;50.808;5.670;2023-04-24T11:41:13;11.65;;;4.68;;
25125;SDS011;13106;50.808;5.670;2023-04-24T11:43:39;8.38;;;4.55;;
25125;SDS011;13106;50.808;5.670;2023-04-24T11:46:05;9.15;;;4.32;;
25125;SDS011;13106;50.808;5.670;2023-04-24T11:48:34;11.45;;;5.28;;
25125;SDS011;13106;50.808;5.670;2023-04-24T11:51:05;10.85;;;4.40;;
25125;SDS011;13106;50.808;5.670;2023-04-24T11:53:31;14.18;;;5.13;;
25125;SDS011;13106;50.808;5.670;2023-04-24T11:56:02;9.40;;;5.03;;
25125;SDS011;13106;50.808;5.670;2023-04-24T11:58:28;7.28;;;3.65;;
25125;SDS011;13106;50.808;5.670;2023-04-24T12:00:57;13.07;;;4.57;;
25125;SDS011;13106;50.808;5.670;2023-04-24T12:03:23;11.32;;;4.45;;
25125;SDS011;13106;50.808;5.670;2023-04-24T12:05:49;11.52;;;4.60;;
25125;SDS011;13106;50.808;5.670;2023-04-24T12:08:28;10.20;;;3.95;;
25125;SDS011;13106;50.808;5.670;2023-04-24T12:10:54;10.85;;;4.43;;
25125;SDS011;13106;50.808;5.670;2023-04-24T12:13:20;10.73;;;4.38;;
25125;SDS011;13106;50.808;5.670;2023-04-24T12:15:47;8.48;;;4.30;;
25125;SDS011;13106;50.808;5.670;2023-04-24T12:18:13;13.90;;;4.78;;
25125;SDS011;13106;50.808;5.670;2023-04-24T12:20:41;7.63;;;4.05;;
25125;SDS011;13106;50.808;5.670;2023-04-24T12:23:08;7.50;;;4.05;;
25125;SDS011;13106;50.808;5.670;2023-04-24T12:25:34;11.93;;;4.72;;
25125;SDS011;13106;50.808;5.670;2023-04-24T12:30:30;11.73;;;4.90;;
25125;SDS011;13106;50.808;5.670;2023-04-24T12:32:57;12.73;;;4.57;;
25125;SDS011;13106;50.808;5.670;2023-04-24T12:35:23;8.85;;;4.90;;
25125;SDS011;13106;50.808;5.670;2023-04-24T12:37:50;10.10;;;4.57;;
25125;SDS011;13106;50.808;5.670;2023-04-24T12:40:16;13.10;;;4.30;;
25125;SDS011;13106;50.808;5.670;2023-04-24T12:42:43;9.48;;;4.82;;
25125;SDS011;13106;50.808;5.670;2023-04-24T12:45:10;9.10;;;4.60;;
25125;SDS011;13106;50.808;5.670;2023-04-24T12:47:37;8.40;;;4.70;;
25125;SDS011;13106;50.808;5.670;2023-04-24T12:50:04;7.00;;;4.07;;
25125;SDS011;13106;50.808;5.670;2023-04-24T12:52:31;6.78;;;4.28;;
25125;SDS011;13106;50.808;5.670;2023-04-24T12:54:57;9.32;;;4.45;;
25125;SDS011;13106;50.808;5.670;2023-04-24T12:57:24;9.57;;;4.25;;
25125;SDS011;13106;50.808;5.670;2023-04-24T12:59:53;9.05;;;4.97;;
25125;SDS011;13106;50.808;5.670;2023-04-24T13:02:19;9.65;;;4.50;;
25125;SDS011;13106;50.808;5.670;2023-04-24T13:04:47;9.65;;;5.18;;
25125;SDS011;13106;50.808;5.670;2023-04-24T13:07:13;13.48;;;4.97;;
25125;SDS011;13106;50.808;5.670;2023-04-24T13:09:39;11.00;;;4.78;;
25125;SDS011;13106;50.808;5.670;2023-04-24T13:12:06;11.45;;;4.97;;
25125;SDS011;13106;50.808;5.670;2023-04-24T13:14:33;9.38;;;5.07;;
25125;SDS011;13106;50.808;5.670;2023-04-24T13:16:59;11.05;;;5.05;;
25125;SDS011;13106;50.808;5.670;2023-04-24T13:19:25;9.98;;;4.88;;
25125;SDS011;13106;50.808;5.670;2023-04-24T13:21:52;7.60;;;4.18;;
25125;SDS011;13106;50.808;5.670;2023-04-24T13:24:19;8.57;;;4.68;;
25125;SDS011;13106;50.808;5.670;2023-04-24T13:26:45;8.40;;;4.85;;
25125;SDS011;13106;50.808;5.670;2023-04-24T13:29:11;8.55;;;4.07;;
25125;SDS011;13106;50.808;5.670;2023-04-24T13:31:37;10.60;;;4.82;;
25125;SDS011;13106;50.808;5.670;2023-04-24T13:34:03;7.15;;;4.28;;
25125;SDS011;13106;50.808;5.670;2023-04-24T13:36:29;7.38;;;4.63;;
25125;SDS011;13106;50.808;5.670;2023-04-24T13:38:56;9.13;;;5.45;;
25125;SDS011;13106;50.808;5.670;2023-04-24T13:41:22;8.57;;;4.30;;
25125;SDS011;13106;50.808;5.670;2023-04-24T13:43:48;8.13;;;4.05;;
25125;SDS011;13106;50.808;5.670;2023-04-24T13:46:14;7.65;;;4.00;;
25125;SDS011;13106;50.808;5.670;2023-04-24T13:48:40;7.00;;;4.32;;
25125;SDS011;13106;50.808;5.670;2023-04-24T13:51:06;8.55;;;4.40;;
25125;SDS011;13106;50.808;5.670;2023-04-24T13:53:33;9.35;;;4.40;;
25125;SDS011;13106;50.808;5.670;2023-04-24T13:56:03;6.03;;;4.03;;
25125;SDS011;13106;50.808;5.670;2023-04-24T13:58:29;9.05;;;4.22;;
25125;SDS011;13106;50.808;5.670;2023-04-24T14:00:55;5.95;;;3.70;;
25125;SDS011;13106;50.808;5.670;2023-04-24T14:03:21;6.32;;;4.03;;
25125;SDS011;13106;50.808;5.670;2023-04-24T14:05:47;8.27;;;4.18;;
25125;SDS011;13106;50.808;5.670;2023-04-24T14:08:13;7.57;;;4.50;;
25125;SDS011;13106;50.808;5.670;2023-04-24T14:10:39;8.27;;;3.70;;
25125;SDS011;13106;50.808;5.670;2023-04-24T14:13:05;7.35;;;4.00;;
25125;SDS011;13106;50.808;5.670;2023-04-24T14:15:31;7.28;;;4.00;;
25125;SDS011;13106;50.808;5.670;2023-04-24T14:17:57;7.97;;;4.10;;
25125;SDS011;13106;50.808;5.670;2023-04-24T14:20:24;7.93;;;4.30;;
25125;SDS011;13106;50.808;5.670;2023-04-24T14:22:50;7.25;;;4.10;;
25125;SDS011;13106;50.808;5.670;2023-04-24T14:25:16;6.07;;;3.67;;
25125;SDS011;13106;50.808;5.670;2023-04-24T14:27:42;7.85;;;4.10;;
25125;SDS011;13106;50.808;5.670;2023-04-24T14:30:08;9.07;;;4.40;;
25125;SDS011;13106;50.808;5.670;2023-04-24T14:32:34;8.68;;;4.22;;
25125;SDS011;13106;50.808;5.670;2023-04-24T14:35:01;10.43;;;4.13;;
25125;SDS011;13106;50.808;5.670;2023-04-24T14:37:27;9.68;;;4.18;;
25125;SDS011;13106;50.808;5.670;2023-04-24T14:39:53;7.32;;;4.40;;
25125;SDS011;13106;50.808;5.670;2023-04-24T14:42:19;6.20;;;4.10;;
25125;SDS011;13106;50.808;5.670;2023-04-24T14:44:45;12.02;;;4.30;;
25125;SDS011;13106;50.808;5.670;2023-04-24T14:47:11;8.48;;;4.72;;
25125;SDS011;13106;50.808;5.670;2023-04-24T14:49:37;6.70;;;3.90;;